sensor_id;sensor_type;location;lat;lon;timestamp;P1;durP1;ratioP1;P2;durP2;ratioP2
25854;SDS011;13680;49.936;11.344;2022-10-16T00:01:21;2.53;;;1.23;;
25854;SDS011;13680;49.936;11.344;2022-10-16T00:03:52;10.88;;;1.45;;
25854;SDS011;13680;49.936;11.344;2022-10-16T00:06:18;4.95;;;1.38;;
25854;SDS011;13680;49.936;11.344;2022-10-16T00:08:45;4.30;;;1.20;;
25854;SDS011;13680;49.936;11.344;2022-10-16T00:11:12;6.47;;;1.70;;
25854;SDS011;13680;49.936;11.344;2022-10-16T00:13:42;2.33;;;1.25;;
25854;SDS011;13680;49.936;11.344;2022-10-16T00:16:09;2.40;;;1.20;;
25854;SDS011;13680;49.936;11.344;2022-10-16T00:18:35;4.32;;;1.42;;
25854;SDS011;13680;49.936;11.344;2022-10-16T00:21:09;1.98;;;1.17;;
25854;SDS011;13680;49.936;11.344;2022-10-16T00:23:40;6.43;;;1.48;;
25854;SDS011;13680;49.936;11.344;2022-10-16T00:26:07;6.15;;;1.92;;
25854;SDS011;13680;49.936;11.344;2022-10-16T00:28:34;4.60;;;1.10;;
25854;SDS011;13680;49.936;11.344;2022-10-16T00:31:04;4.10;;;1.70;;
25854;SDS011;13680;49.936;11.344;2022-10-16T00:33:31;7.32;;;2.05;;
25854;SDS011;13680;49.936;11.344;2022-10-16T00:36:00;8.57;;;1.90;;
25854;SDS011;13680;49.936;11.344;2022-10-16T00:38:27;8.95;;;1.55;;
25854;SDS011;13680;49.936;11.344;2022-10-16T00:40:52;2.75;;;1.52;;
25854;SDS011;13680;49.936;11.344;2022-10-16T00:44:04;2.33;;;1.27;;
25854;SDS011;13680;49.936;11.344;2022-10-16T00:46:05;7.20;;;1.92;;
25854;SDS011;13680;49.936;11.344;2022-10-16T00:48:35;10.82;;;2.60;;
25854;SDS011;13680;49.936;11.344;2022-10-16T00:51:00;3.17;;;1.80;;
25854;SDS011;13680;49.936;11.344;2022-10-16T00:53:26;4.78;;;2.20;;
25854;SDS011;13680;49.936;11.344;2022-10-16T00:55:52;3.75;;;1.60;;
25854;SDS011;13680;49.936;11.344;2022-10-16T00:58:18;10.77;;;1.80;;
25854;SDS011;13680;49.936;11.344;2022-10-16T01:00:44;2.10;;;1.20;;
25854;SDS011;13680;49.936;11.344;2022-10-16T01:03:30;5.65;;;1.50;;
25854;SDS011;13680;49.936;11.344;2022-10-16T01:06:20;4.68;;;1.73;;
25854;SDS011;13680;49.936;11.344;2022-10-16T01:08:53;1.48;;;1.30;;
25854;SDS011;13680;49.936;11.344;2022-10-16T01:11:44;9.05;;;1.55;;
25854;SDS011;13680;49.936;11.344;2022-10-16T01:14:37;3.17;;;1.38;;
25854;SDS011;13680;49.936;11.344;2022-10-16T01:17:06;5.35;;;1.55;;
25854;SDS011;13680;49.936;11.344;2022-10-16T01:22:22;5.65;;;1.23;;
25854;SDS011;13680;49.936;11.344;2022-10-16T01:24:54;4.63;;;1.30;;
25854;SDS011;13680;49.936;11.344;2022-10-16T01:27:24;6.00;;;1.50;;
25854;SDS011;13680;49.936;11.344;2022-10-16T01:29:54;6.25;;;1.50;;
25854;SDS011;13680;49.936;11.344;2022-10-16T01:32:38;2.25;;;1.10;;
25854;SDS011;13680;49.936;11.344;2022-10-16T01:40:38;2.22;;;1.48;;
25854;SDS011;13680;49.936;11.344;2022-10-16T01:43:10;9.65;;;1.40;;
25854;SDS011;13680;49.936;11.344;2022-10-16T01:45:39;6.50;;;1.23;;
25854;SDS011;13680;49.936;11.344;2022-10-16T01:48:07;7.40;;;1.52;;
25854;SDS011;13680;49.936;11.344;2022-10-16T01:50:37;6.28;;;1.60;;
25854;SDS011;13680;49.936;11.344;2022-10-16T01:53:05;7.07;;;1.60;;
25854;SDS011;13680;49.936;11.344;2022-10-16T01:55:33;5.63;;;1.40;;
25854;SDS011;13680;49.936;11.344;2022-10-16T01:58:02;4.38;;;1.90;;
25854;SDS011;13680;49.936;11.344;2022-10-16T02:00:30;8.93;;;1.33;;
25854;SDS011;13680;49.936;11.344;2022-10-16T02:02:56;5.47;;;1.17;;
25854;SDS011;13680;49.936;11.344;2022-10-16T02:07:53;5.93;;;1.30;;
25854;SDS011;13680;49.936;11.344;2022-10-16T02:10:19;3.33;;;1.38;;
25854;SDS011;13680;49.936;11.344;2022-10-16T02:12:47;6.90;;;1.30;;
25854;SDS011;13680;49.936;11.344;2022-10-16T02:15:18;9.93;;;1.30;;
25854;SDS011;13680;49.936;11.344;2022-10-16T02:17:44;3.13;;;1.30;;
25854;SDS011;13680;49.936;11.344;2022-10-16T02:20:09;7.30;;;1.23;;
25854;SDS011;13680;49.936;11.344;2022-10-16T02:22:36;6.03;;;1.15;;
25854;SDS011;13680;49.936;11.344;2022-10-16T02:25:40;1.85;;;1.35;;
25854;SDS011;13680;49.936;11.344;2022-10-16T02:28:01;6.47;;;1.48;;
25854;SDS011;13680;49.936;11.344;2022-10-16T02:30:33;10.77;;;1.70;;
25854;SDS011;13680;49.936;11.344;2022-10-16T02:33:05;6.32;;;1.52;;
25854;SDS011;13680;49.936;11.344;2022-10-16T02:35:34;4.90;;;1.45;;
25854;SDS011;13680;49.936;11.344;2022-10-16T02:38:00;2.33;;;1.40;;
25854;SDS011;13680;49.936;11.344;2022-10-16T02:40:27;4.72;;;1.50;;
25854;SDS011;13680;49.936;11.344;2022-10-16T02:42:53;6.25;;;1.45;;
25854;SDS011;13680;49.936;11.344;2022-10-16T02:45:19;2.53;;;1.17;;
25854;SDS011;13680;49.936;11.344;2022-10-16T02:47:45;3.50;;;1.30;;
25854;SDS011;13680;49.936;11.344;2022-10-16T02:50:10;3.50;;;1.25;;
25854;SDS011;13680;49.936;11.344;2022-10-16T02:52:36;10.40;;;1.48;;
25854;SDS011;13680;49.936;11.344;2022-10-16T02:55:01;5.70;;;1.50;;
25854;SDS011;13680;49.936;11.344;2022-10-16T02:57:27;4.82;;;1.27;;
25854;SDS011;13680;49.936;11.344;2022-10-16T02:59:52;4.13;;;1.23;;
25854;SDS011;13680;49.936;11.344;2022-10-16T03:02:17;2.85;;;1.63;;
25854;SDS011;13680;49.936;11.344;2022-10-16T03:04:42;3.72;;;1.33;;
25854;SDS011;13680;49.936;11.344;2022-10-16T03:07:08;4.20;;;1.17;;
25854;SDS011;13680;49.936;11.344;2022-10-16T03:09:33;4.68;;;1.20;;
25854;SDS011;13680;49.936;11.344;2022-10-16T03:11:58;7.78;;;1.30;;
25854;SDS011;13680;49.936;11.344;2022-10-16T03:14:24;6.10;;;1.33;;
25854;SDS011;13680;49.936;11.344;2022-10-16T03:16:49;3.75;;;1.50;;
25854;SDS011;13680;49.936;11.344;2022-10-16T03:19:18;3.92;;;1.55;;
25854;SDS011;13680;49.936;11.344;2022-10-16T03:21:43;2.25;;;1.55;;
25854;SDS011;13680;49.936;11.344;2022-10-16T03:24:09;3.63;;;1.50;;
25854;SDS011;13680;49.936;11.344;2022-10-16T03:26:35;4.05;;;1.50;;
25854;SDS011;13680;49.936;11.344;2022-10-16T03:29:00;7.07;;;1.40;;
25854;SDS011;13680;49.936;11.344;2022-10-16T03:31:27;5.20;;;1.67;;
25854;SDS011;13680;49.936;11.344;2022-10-16T03:33:52;4.07;;;1.40;;
25854;SDS011;13680;49.936;11.344;2022-10-16T03:36:18;5.25;;;1.52;;
25854;SDS011;13680;49.936;11.344;2022-10-16T03:38:43;8.85;;;1.90;;
25854;SDS011;13680;49.936;11.344;2022-10-16T03:41:08;2.78;;;1.40;;
25854;SDS011;13680;49.936;11.344;2022-10-16T03:43:33;3.47;;;1.08;;
25854;SDS011;13680;49.936;11.344;2022-10-16T03:45:59;2.58;;;1.45;;
25854;SDS011;13680;49.936;11.344;2022-10-16T03:48:24;2.58;;;1.40;;
25854;SDS011;13680;49.936;11.344;2022-10-16T03:50:49;9.57;;;1.70;;
25854;SDS011;13680;49.936;11.344;2022-10-16T03:53:16;3.10;;;1.55;;
25854;SDS011;13680;49.936;11.344;2022-10-16T03:55:42;6.75;;;1.60;;
25854;SDS011;13680;49.936;11.344;2022-10-16T03:58:08;6.43;;;1.55;;
25854;SDS011;13680;49.936;11.344;2022-10-16T04:00:33;5.20;;;1.90;;
25854;SDS011;13680;49.936;11.344;2022-10-16T04:02:59;4.78;;;1.70;;
25854;SDS011;13680;49.936;11.344;2022-10-16T04:05:25;3.40;;;1.77;;
25854;SDS011;13680;49.936;11.344;2022-10-16T04:07:50;11.55;;;1.70;;
25854;SDS011;13680;49.936;11.344;2022-10-16T04:10:15;5.88;;;1.60;;
25854;SDS011;13680;49.936;11.344;2022-10-16T04:12:41;4.10;;;1.38;;
25854;SDS011;13680;49.936;11.344;2022-10-16T04:15:06;3.67;;;1.45;;
25854;SDS011;13680;49.936;11.344;2022-10-16T04:17:32;3.00;;;1.40;;
25854;SDS011;13680;49.936;11.344;2022-10-16T04:19:57;5.63;;;1.60;;
25854;SDS011;13680;49.936;11.344;2022-10-16T04:22:23;3.03;;;1.40;;
25854;SDS011;13680;49.936;11.344;2022-10-16T04:24:48;6.93;;;1.40;;
25854;SDS011;13680;49.936;11.344;2022-10-16T04:27:13;7.97;;;1.80;;
25854;SDS011;13680;49.936;11.344;2022-10-16T04:29:38;5.75;;;1.95;;
25854;SDS011;13680;49.936;11.344;2022-10-16T04:32:04;4.68;;;1.70;;
25854;SDS011;13680;49.936;11.344;2022-10-16T04:34:29;7.97;;;1.80;;
25854;SDS011;13680;49.936;11.344;2022-10-16T04:36:55;2.38;;;1.80;;
25854;SDS011;13680;49.936;11.344;2022-10-16T04:39:20;6.88;;;1.70;;
25854;SDS011;13680;49.936;11.344;2022-10-16T04:41:45;5.65;;;1.55;;
25854;SDS011;13680;49.936;11.344;2022-10-16T04:44:11;3.90;;;1.60;;
25854;SDS011;13680;49.936;11.344;2022-10-16T04:46:36;5.90;;;1.48;;
25854;SDS011;13680;49.936;11.344;2022-10-16T04:49:01;5.53;;;1.90;;
25854;SDS011;13680;49.936;11.344;2022-10-16T04:51:26;5.57;;;1.67;;
25854;SDS011;13680;49.936;11.344;2022-10-16T04:53:53;8.02;;;1.75;;
25854;SDS011;13680;49.936;11.344;2022-10-16T04:56:19;3.00;;;1.70;;
25854;SDS011;13680;49.936;11.344;2022-10-16T04:58:46;4.97;;;1.88;;
25854;SDS011;13680;49.936;11.344;2022-10-16T05:01:11;2.50;;;1.40;;
25854;SDS011;13680;49.936;11.344;2022-10-16T05:03:37;10.63;;;1.58;;
25854;SDS011;13680;49.936;11.344;2022-10-16T05:06:04;4.38;;;1.80;;
25854;SDS011;13680;49.936;11.344;2022-10-16T05:08:30;7.15;;;1.23;;
25854;SDS011;13680;49.936;11.344;2022-10-16T05:10:56;7.57;;;1.45;;
25854;SDS011;13680;49.936;11.344;2022-10-16T05:13:21;4.65;;;1.40;;
25854;SDS011;13680;49.936;11.344;2022-10-16T05:15:48;2.75;;;1.35;;
25854;SDS011;13680;49.936;11.344;2022-10-16T05:18:13;3.38;;;1.40;;
25854;SDS011;13680;49.936;11.344;2022-10-16T05:20:39;17.35;;;10.10;;
25854;SDS011;13680;49.936;11.344;2022-10-16T05:23:05;17.27;;;10.35;;
25854;SDS011;13680;49.936;11.344;2022-10-16T05:25:31;9.32;;;4.35;;
25854;SDS011;13680;49.936;11.344;2022-10-16T05:27:56;6.80;;;2.67;;
25854;SDS011;13680;49.936;11.344;2022-10-16T05:30:21;8.23;;;2.17;;
25854;SDS011;13680;49.936;11.344;2022-10-16T05:32:47;12.65;;;2.20;;
25854;SDS011;13680;49.936;11.344;2022-10-16T05:35:14;5.90;;;2.03;;
25854;SDS011;13680;49.936;11.344;2022-10-16T05:37:39;2.10;;;1.63;;
25854;SDS011;13680;49.936;11.344;2022-10-16T05:40:05;4.50;;;1.90;;
25854;SDS011;13680;49.936;11.344;2022-10-16T05:42:31;6.05;;;1.58;;
25854;SDS011;13680;49.936;11.344;2022-10-16T05:44:56;2.88;;;1.92;;
25854;SDS011;13680;49.936;11.344;2022-10-16T05:47:21;2.95;;;2.20;;
25854;SDS011;13680;49.936;11.344;2022-10-16T05:49:47;13.57;;;7.15;;
25854;SDS011;13680;49.936;11.344;2022-10-16T05:52:12;27.45;;;16.92;;
25854;SDS011;13680;49.936;11.344;2022-10-16T05:54:37;8.30;;;3.63;;
25854;SDS011;13680;49.936;11.344;2022-10-16T05:57:02;4.97;;;2.58;;
25854;SDS011;13680;49.936;11.344;2022-10-16T05:59:30;4.05;;;2.35;;
25854;SDS011;13680;49.936;11.344;2022-10-16T06:01:56;7.68;;;2.40;;
25854;SDS011;13680;49.936;11.344;2022-10-16T06:04:21;4.50;;;2.75;;
25854;SDS011;13680;49.936;11.344;2022-10-16T06:06:46;6.60;;;2.88;;
25854;SDS011;13680;49.936;11.344;2022-10-16T06:09:12;8.23;;;2.72;;
25854;SDS011;13680;49.936;11.344;2022-10-16T06:11:37;5.40;;;1.80;;
25854;SDS011;13680;49.936;11.344;2022-10-16T06:14:02;7.90;;;1.88;;
25854;SDS011;13680;49.936;11.344;2022-10-16T06:16:31;5.60;;;1.60;;
25854;SDS011;13680;49.936;11.344;2022-10-16T06:19:00;2.58;;;1.83;;
25854;SDS011;13680;49.936;11.344;2022-10-16T06:21:26;5.75;;;2.50;;
25854;SDS011;13680;49.936;11.344;2022-10-16T06:23:53;7.40;;;2.80;;
25854;SDS011;13680;49.936;11.344;2022-10-16T06:26:20;5.43;;;2.03;;
25854;SDS011;13680;49.936;11.344;2022-10-16T06:28:48;3.75;;;1.42;;
25854;SDS011;13680;49.936;11.344;2022-10-16T06:31:13;5.40;;;2.63;;
25854;SDS011;13680;49.936;11.344;2022-10-16T06:33:40;5.65;;;2.75;;
25854;SDS011;13680;49.936;11.344;2022-10-16T06:36:07;17.70;;;9.73;;
25854;SDS011;13680;49.936;11.344;2022-10-16T06:38:35;13.77;;;7.80;;
25854;SDS011;13680;49.936;11.344;2022-10-16T06:41:00;49.72;;;26.83;;
25854;SDS011;13680;49.936;11.344;2022-10-16T06:43:27;47.45;;;31.00;;
25854;SDS011;13680;49.936;11.344;2022-10-16T06:45:57;23.95;;;15.95;;
25854;SDS011;13680;49.936;11.344;2022-10-16T06:48:23;4.97;;;2.53;;
25854;SDS011;13680;49.936;11.344;2022-10-16T06:51:03;10.38;;;2.30;;
25854;SDS011;13680;49.936;11.344;2022-10-16T06:53:35;6.53;;;2.83;;
25854;SDS011;13680;49.936;11.344;2022-10-16T06:56:09;4.63;;;3.03;;
25854;SDS011;13680;49.936;11.344;2022-10-16T06:58:39;5.57;;;2.28;;
25854;SDS011;13680;49.936;11.344;2022-10-16T07:01:05;10.10;;;3.13;;
25854;SDS011;13680;49.936;11.344;2022-10-16T07:03:31;5.00;;;1.67;;
25854;SDS011;13680;49.936;11.344;2022-10-16T07:06:00;6.00;;;1.80;;
25854;SDS011;13680;49.936;11.344;2022-10-16T07:08:27;4.75;;;1.70;;
25854;SDS011;13680;49.936;11.344;2022-10-16T07:11:02;3.67;;;1.50;;
25854;SDS011;13680;49.936;11.344;2022-10-16T07:13:36;2.40;;;1.80;;
25854;SDS011;13680;49.936;11.344;2022-10-16T07:18:31;5.45;;;2.00;;
25854;SDS011;13680;49.936;11.344;2022-10-16T07:21:04;9.48;;;2.60;;
25854;SDS011;13680;49.936;11.344;2022-10-16T07:23:29;5.20;;;1.85;;
25854;SDS011;13680;49.936;11.344;2022-10-16T07:25:55;11.43;;;6.22;;
25854;SDS011;13680;49.936;11.344;2022-10-16T07:28:20;17.20;;;8.13;;
25854;SDS011;13680;49.936;11.344;2022-10-16T07:30:47;5.32;;;3.05;;
25854;SDS011;13680;49.936;11.344;2022-10-16T07:33:12;4.63;;;2.97;;
25854;SDS011;13680;49.936;11.344;2022-10-16T07:35:37;6.22;;;4.90;;
25854;SDS011;13680;49.936;11.344;2022-10-16T07:38:03;6.20;;;4.72;;
25854;SDS011;13680;49.936;11.344;2022-10-16T07:40:28;9.27;;;4.40;;
25854;SDS011;13680;49.936;11.344;2022-10-16T07:42:53;7.72;;;2.78;;
25854;SDS011;13680;49.936;11.344;2022-10-16T07:45:19;5.43;;;2.78;;
25854;SDS011;13680;49.936;11.344;2022-10-16T07:47:44;6.00;;;2.40;;
25854;SDS011;13680;49.936;11.344;2022-10-16T07:50:09;5.68;;;2.67;;
25854;SDS011;13680;49.936;11.344;2022-10-16T07:52:35;4.20;;;2.25;;
25854;SDS011;13680;49.936;11.344;2022-10-16T07:55:00;5.90;;;2.30;;
25854;SDS011;13680;49.936;11.344;2022-10-16T07:57:25;7.60;;;2.63;;
25854;SDS011;13680;49.936;11.344;2022-10-16T07:59:50;6.05;;;1.85;;
25854;SDS011;13680;49.936;11.344;2022-10-16T08:02:16;3.08;;;1.63;;
25854;SDS011;13680;49.936;11.344;2022-10-16T08:04:41;5.18;;;1.40;;
25854;SDS011;13680;49.936;11.344;2022-10-16T08:07:07;3.22;;;1.58;;
25854;SDS011;13680;49.936;11.344;2022-10-16T08:09:33;3.72;;;2.75;;
25854;SDS011;13680;49.936;11.344;2022-10-16T08:11:59;4.35;;;1.88;;
25854;SDS011;13680;49.936;11.344;2022-10-16T08:14:24;5.38;;;1.90;;
25854;SDS011;13680;49.936;11.344;2022-10-16T08:16:49;6.15;;;2.20;;
25854;SDS011;13680;49.936;11.344;2022-10-16T08:19:14;3.63;;;1.70;;
25854;SDS011;13680;49.936;11.344;2022-10-16T08:21:40;2.50;;;1.30;;
25854;SDS011;13680;49.936;11.344;2022-10-16T08:24:06;2.60;;;1.73;;
25854;SDS011;13680;49.936;11.344;2022-10-16T08:26:31;3.92;;;1.25;;
25854;SDS011;13680;49.936;11.344;2022-10-16T08:28:56;3.75;;;1.48;;
25854;SDS011;13680;49.936;11.344;2022-10-16T08:31:22;3.22;;;1.73;;
25854;SDS011;13680;49.936;11.344;2022-10-16T08:33:48;8.50;;;1.98;;
25854;SDS011;13680;49.936;11.344;2022-10-16T08:36:15;1.95;;;1.40;;
25854;SDS011;13680;49.936;11.344;2022-10-16T08:38:41;7.20;;;1.30;;
25854;SDS011;13680;49.936;11.344;2022-10-16T08:41:16;2.58;;;1.27;;
25854;SDS011;13680;49.936;11.344;2022-10-16T08:46:53;3.72;;;1.20;;
25854;SDS011;13680;49.936;11.344;2022-10-16T08:49:26;8.93;;;1.75;;
25854;SDS011;13680;49.936;11.344;2022-10-16T08:51:52;3.47;;;1.10;;
25854;SDS011;13680;49.936;11.344;2022-10-16T08:54:37;4.63;;;1.42;;
25854;SDS011;13680;49.936;11.344;2022-10-16T08:57:17;3.83;;;1.23;;
25854;SDS011;13680;49.936;11.344;2022-10-16T08:59:45;3.95;;;1.58;;
25854;SDS011;13680;49.936;11.344;2022-10-16T09:02:54;5.07;;;1.67;;
25854;SDS011;13680;49.936;11.344;2022-10-16T09:07:58;4.47;;;1.30;;
25854;SDS011;13680;49.936;11.344;2022-10-16T09:15:39;8.95;;;1.70;;
25854;SDS011;13680;49.936;11.344;2022-10-16T09:23:30;3.78;;;1.42;;
25854;SDS011;13680;49.936;11.344;2022-10-16T09:25:59;2.45;;;1.33;;
25854;SDS011;13680;49.936;11.344;2022-10-16T09:28:24;3.10;;;1.40;;
25854;SDS011;13680;49.936;11.344;2022-10-16T09:30:50;2.55;;;1.40;;
25854;SDS011;13680;49.936;11.344;2022-10-16T09:33:17;2.92;;;1.50;;
25854;SDS011;13680;49.936;11.344;2022-10-16T09:35:46;3.38;;;1.50;;
25854;SDS011;13680;49.936;11.344;2022-10-16T09:38:30;1.42;;;1.33;;
25854;SDS011;13680;49.936;11.344;2022-10-16T09:41:20;6.55;;;2.00;;
25854;SDS011;13680;49.936;11.344;2022-10-16T09:43:59;3.38;;;1.30;;
25854;SDS011;13680;49.936;11.344;2022-10-16T09:48:54;3.97;;;1.15;;
25854;SDS011;13680;49.936;11.344;2022-10-16T09:51:22;2.13;;;1.38;;
25854;SDS011;13680;49.936;11.344;2022-10-16T09:53:48;12.77;;;5.32;;
25854;SDS011;13680;49.936;11.344;2022-10-16T09:56:26;19.48;;;7.88;;
25854;SDS011;13680;49.936;11.344;2022-10-16T09:59:01;8.50;;;3.45;;
25854;SDS011;13680;49.936;11.344;2022-10-16T10:01:37;8.45;;;3.75;;
25854;SDS011;13680;49.936;11.344;2022-10-16T10:04:04;3.83;;;1.30;;
25854;SDS011;13680;49.936;11.344;2022-10-16T10:06:32;6.68;;;1.92;;
25854;SDS011;13680;49.936;11.344;2022-10-16T10:11:37;3.33;;;1.20;;
25854;SDS011;13680;49.936;11.344;2022-10-16T10:14:26;3.75;;;1.48;;
25854;SDS011;13680;49.936;11.344;2022-10-16T10:17:16;7.50;;;1.17;;
25854;SDS011;13680;49.936;11.344;2022-10-16T10:22:39;5.95;;;1.77;;
25854;SDS011;13680;49.936;11.344;2022-10-16T10:30:15;2.10;;;1.20;;
25854;SDS011;13680;49.936;11.344;2022-10-16T10:35:44;2.55;;;1.35;;
25854;SDS011;13680;49.936;11.344;2022-10-16T10:45:17;4.22;;;1.73;;
25854;SDS011;13680;49.936;11.344;2022-10-16T10:47:16;3.47;;;1.75;;
25854;SDS011;13680;49.936;11.344;2022-10-16T10:55:20;2.40;;;1.50;;
25854;SDS011;13680;49.936;11.344;2022-10-16T10:58:00;4.28;;;1.70;;
25854;SDS011;13680;49.936;11.344;2022-10-16T11:06:17;5.78;;;1.52;;
25854;SDS011;13680;49.936;11.344;2022-10-16T11:11:44;7.55;;;1.45;;
25854;SDS011;13680;49.936;11.344;2022-10-16T11:14:24;7.45;;;1.75;;
25854;SDS011;13680;49.936;11.344;2022-10-16T11:17:01;3.08;;;1.63;;
25854;SDS011;13680;49.936;11.344;2022-10-16T11:19:39;3.92;;;1.38;;
25854;SDS011;13680;49.936;11.344;2022-10-16T11:22:16;2.88;;;1.60;;
25854;SDS011;13680;49.936;11.344;2022-10-16T11:24:51;3.33;;;1.20;;
25854;SDS011;13680;49.936;11.344;2022-10-16T11:27:22;7.13;;;1.30;;
25854;SDS011;13680;49.936;11.344;2022-10-16T11:29:57;2.50;;;1.38;;
25854;SDS011;13680;49.936;11.344;2022-10-16T11:32:28;3.92;;;1.38;;
25854;SDS011;13680;49.936;11.344;2022-10-16T11:35:00;6.43;;;1.70;;
25854;SDS011;13680;49.936;11.344;2022-10-16T11:37:33;5.03;;;1.40;;
25854;SDS011;13680;49.936;11.344;2022-10-16T11:40:11;2.20;;;1.42;;
25854;SDS011;13680;49.936;11.344;2022-10-16T11:42:41;7.28;;;1.80;;
25854;SDS011;13680;49.936;11.344;2022-10-16T11:56:28;7.90;;;1.30;;
25854;SDS011;13680;49.936;11.344;2022-10-16T11:59:07;4.75;;;1.65;;
25854;SDS011;13680;49.936;11.344;2022-10-16T12:06:57;2.95;;;1.40;;
25854;SDS011;13680;49.936;11.344;2022-10-16T12:09:36;2.20;;;1.10;;
25854;SDS011;13680;49.936;11.344;2022-10-16T12:12:04;2.42;;;1.10;;
25854;SDS011;13680;49.936;11.344;2022-10-16T12:14:34;10.85;;;1.35;;
25854;SDS011;13680;49.936;11.344;2022-10-16T12:17:03;3.40;;;1.80;;
25854;SDS011;13680;49.936;11.344;2022-10-16T12:20:00;16.42;;;3.15;;
25854;SDS011;13680;49.936;11.344;2022-10-16T12:25:23;6.28;;;1.48;;
25854;SDS011;13680;49.936;11.344;2022-10-16T12:27:53;5.45;;;1.27;;
25854;SDS011;13680;49.936;11.344;2022-10-16T12:30:37;5.63;;;1.50;;
25854;SDS011;13680;49.936;11.344;2022-10-16T12:33:04;4.88;;;1.45;;
25854;SDS011;13680;49.936;11.344;2022-10-16T12:35:35;4.95;;;1.73;;
25854;SDS011;13680;49.936;11.344;2022-10-16T12:38:17;5.30;;;1.90;;
25854;SDS011;13680;49.936;11.344;2022-10-16T12:40:56;3.10;;;1.20;;
25854;SDS011;13680;49.936;11.344;2022-10-16T12:43:46;4.95;;;1.55;;
25854;SDS011;13680;49.936;11.344;2022-10-16T12:48:39;4.43;;;1.50;;
25854;SDS011;13680;49.936;11.344;2022-10-16T12:51:09;1.88;;;1.17;;
25854;SDS011;13680;49.936;11.344;2022-10-16T12:54:11;2.08;;;1.10;;
25854;SDS011;13680;49.936;11.344;2022-10-16T12:56:42;5.82;;;1.80;;
25854;SDS011;13680;49.936;11.344;2022-10-16T13:02:09;1.83;;;1.10;;
25854;SDS011;13680;49.936;11.344;2022-10-16T13:07:44;1.83;;;1.20;;
25854;SDS011;13680;49.936;11.344;2022-10-16T13:10:35;2.13;;;1.15;;
25854;SDS011;13680;49.936;11.344;2022-10-16T13:13:14;3.40;;;1.65;;
25854;SDS011;13680;49.936;11.344;2022-10-16T13:23:50;3.20;;;1.00;;
25854;SDS011;13680;49.936;11.344;2022-10-16T13:29:17;4.47;;;1.13;;
25854;SDS011;13680;49.936;11.344;2022-10-16T13:31:44;2.70;;;1.20;;
25854;SDS011;13680;49.936;11.344;2022-10-16T13:34:14;5.57;;;1.48;;
25854;SDS011;13680;49.936;11.344;2022-10-16T13:36:46;3.60;;;0.85;;
25854;SDS011;13680;49.936;11.344;2022-10-16T13:42:13;2.42;;;1.20;;
25854;SDS011;13680;49.936;11.344;2022-10-16T13:44:42;1.67;;;0.90;;
25854;SDS011;13680;49.936;11.344;2022-10-16T13:47:14;2.30;;;1.30;;
25854;SDS011;13680;49.936;11.344;2022-10-16T13:50:10;1.98;;;1.20;;
25854;SDS011;13680;49.936;11.344;2022-10-16T13:52:38;2.88;;;1.08;;
25854;SDS011;13680;49.936;11.344;2022-10-16T13:55:04;5.38;;;1.17;;
25854;SDS011;13680;49.936;11.344;2022-10-16T13:57:35;4.18;;;1.17;;
25854;SDS011;13680;49.936;11.344;2022-10-16T14:00:00;6.30;;;1.10;;
25854;SDS011;13680;49.936;11.344;2022-10-16T14:02:36;4.35;;;1.02;;
25854;SDS011;13680;49.936;11.344;2022-10-16T14:05:08;2.10;;;1.00;;
25854;SDS011;13680;49.936;11.344;2022-10-16T14:07:35;2.80;;;1.30;;
25854;SDS011;13680;49.936;11.344;2022-10-16T14:10:06;6.47;;;1.13;;
25854;SDS011;13680;49.936;11.344;2022-10-16T14:12:45;1.38;;;1.20;;
25854;SDS011;13680;49.936;11.344;2022-10-16T14:15:19;3.80;;;1.23;;
25854;SDS011;13680;49.936;11.344;2022-10-16T14:17:45;3.05;;;1.10;;
25854;SDS011;13680;49.936;11.344;2022-10-16T14:20:14;6.90;;;1.20;;
25854;SDS011;13680;49.936;11.344;2022-10-16T14:22:41;3.15;;;1.10;;
25854;SDS011;13680;49.936;11.344;2022-10-16T14:25:40;3.30;;;0.90;;
25854;SDS011;13680;49.936;11.344;2022-10-16T14:28:14;4.72;;;1.00;;
25854;SDS011;13680;49.936;11.344;2022-10-16T14:33:52;3.60;;;1.10;;
25854;SDS011;13680;49.936;11.344;2022-10-16T14:36:18;4.47;;;1.50;;
25854;SDS011;13680;49.936;11.344;2022-10-16T14:39:01;7.55;;;1.25;;
25854;SDS011;13680;49.936;11.344;2022-10-16T14:41:29;6.03;;;1.20;;
25854;SDS011;13680;49.936;11.344;2022-10-16T14:43:58;9.13;;;1.35;;
25854;SDS011;13680;49.936;11.344;2022-10-16T14:46:38;2.90;;;1.20;;
25854;SDS011;13680;49.936;11.344;2022-10-16T14:51:34;1.73;;;1.20;;
25854;SDS011;13680;49.936;11.344;2022-10-16T14:53:59;3.60;;;1.25;;
25854;SDS011;13680;49.936;11.344;2022-10-16T14:56:25;3.33;;;1.20;;
25854;SDS011;13680;49.936;11.344;2022-10-16T14:58:55;4.22;;;1.15;;
25854;SDS011;13680;49.936;11.344;2022-10-16T15:01:21;3.22;;;1.50;;
25854;SDS011;13680;49.936;11.344;2022-10-16T15:03:47;2.00;;;1.30;;
25854;SDS011;13680;49.936;11.344;2022-10-16T15:06:14;3.75;;;1.63;;
25854;SDS011;13680;49.936;11.344;2022-10-16T15:08:40;3.58;;;1.60;;
25854;SDS011;13680;49.936;11.344;2022-10-16T15:11:13;3.60;;;1.63;;
25854;SDS011;13680;49.936;11.344;2022-10-16T15:13:43;5.10;;;1.40;;
25854;SDS011;13680;49.936;11.344;2022-10-16T15:16:14;7.85;;;1.95;;
25854;SDS011;13680;49.936;11.344;2022-10-16T15:18:41;8.20;;;1.40;;
25854;SDS011;13680;49.936;11.344;2022-10-16T15:21:06;4.35;;;1.35;;
25854;SDS011;13680;49.936;11.344;2022-10-16T15:23:32;3.05;;;1.42;;
25854;SDS011;13680;49.936;11.344;2022-10-16T15:25:58;2.83;;;1.65;;
25854;SDS011;13680;49.936;11.344;2022-10-16T15:28:24;2.83;;;1.48;;
25854;SDS011;13680;49.936;11.344;2022-10-16T15:30:51;4.18;;;1.90;;
25854;SDS011;13680;49.936;11.344;2022-10-16T15:33:21;2.22;;;1.45;;
25854;SDS011;13680;49.936;11.344;2022-10-16T15:35:53;2.75;;;1.45;;
25854;SDS011;13680;49.936;11.344;2022-10-16T15:38:20;5.78;;;1.70;;
25854;SDS011;13680;49.936;11.344;2022-10-16T15:40:47;4.30;;;2.50;;
25854;SDS011;13680;49.936;11.344;2022-10-16T15:43:13;8.70;;;2.60;;
25854;SDS011;13680;49.936;11.344;2022-10-16T15:45:38;7.97;;;1.80;;
25854;SDS011;13680;49.936;11.344;2022-10-16T15:48:04;6.22;;;1.55;;
25854;SDS011;13680;49.936;11.344;2022-10-16T15:50:30;6.65;;;1.60;;
25854;SDS011;13680;49.936;11.344;2022-10-16T15:52:56;2.00;;;1.80;;
25854;SDS011;13680;49.936;11.344;2022-10-16T15:55:22;4.13;;;2.20;;
25854;SDS011;13680;49.936;11.344;2022-10-16T15:57:47;8.15;;;2.03;;
25854;SDS011;13680;49.936;11.344;2022-10-16T16:00:14;7.30;;;2.30;;
25854;SDS011;13680;49.936;11.344;2022-10-16T16:02:41;4.13;;;2.85;;
25854;SDS011;13680;49.936;11.344;2022-10-16T16:05:07;8.68;;;3.65;;
25854;SDS011;13680;49.936;11.344;2022-10-16T16:07:37;11.85;;;3.47;;
25854;SDS011;13680;49.936;11.344;2022-10-16T16:10:05;6.85;;;3.15;;
25854;SDS011;13680;49.936;11.344;2022-10-16T16:12:33;7.63;;;3.20;;
25854;SDS011;13680;49.936;11.344;2022-10-16T16:14:58;13.52;;;3.40;;
25854;SDS011;13680;49.936;11.344;2022-10-16T16:17:25;7.70;;;3.13;;
25854;SDS011;13680;49.936;11.344;2022-10-16T16:19:50;8.20;;;5.18;;
25854;SDS011;13680;49.936;11.344;2022-10-16T16:22:16;7.57;;;4.35;;
25854;SDS011;13680;49.936;11.344;2022-10-16T16:24:42;12.68;;;3.80;;
25854;SDS011;13680;49.936;11.344;2022-10-16T16:27:07;8.93;;;3.90;;
25854;SDS011;13680;49.936;11.344;2022-10-16T16:29:33;8.95;;;4.60;;
25854;SDS011;13680;49.936;11.344;2022-10-16T16:31:59;9.55;;;4.82;;
25854;SDS011;13680;49.936;11.344;2022-10-16T16:34:25;8.95;;;4.57;;
25854;SDS011;13680;49.936;11.344;2022-10-16T16:36:52;6.22;;;3.05;;
25854;SDS011;13680;49.936;11.344;2022-10-16T16:39:17;13.00;;;3.60;;